ADDS METAR Data INFO
IDs: Format: Raw Decoded Include TAF

Data at: 0102 UTC 24 Jun 2018

PAPG 240056Z 28007KT 10SM BKN039 BKN070 16/08 A3007 RMK AO2 SLP186 T01560078
PAPG 232356Z 00000KT 10SM SCT042 SCT049 OVC060 16/07 A3008 RMK AO2 SLP189 T01560072 10161 20128 56006
PAPG 232256Z 26006KT 10SM FEW037 SCT045 BKN055 16/07 A3009 RMK AO2 SLP191 T01610072
PAPG 232156Z VRB06KT 10SM OVC050 16/08 A3009 RMK AO2 SLP193 T01610078
PAPG 232056Z 00000KT 10SM BKN037 OVC044 16/08 A3010 RMK AO2 SLP195 T01560083 58007
PAPG 231956Z 25007KT 10SM SCT035 OVC055 16/08 A3011 RMK AO2 SLP200 T01560078
PAPG 231856Z 32003KT 10SM SCT039 BKN050 14/08 A3011 RMK AO2 SLP201 T01440083
PAPG 231756Z 09006KT 10SM BKN039 OVC050 14/09 A3012 RMK AO2 SLP202 T01390089 10139 20111 58005
PAPG 231656Z VRB03KT 10SM BKN032 13/09 A3013 RMK AO2 SLP205 T01330089
PAPG 231556Z VRB04KT 10SM SCT029 BKN048 13/09 A3013 RMK AO2 SLP206 T01280089
PAPG 231456Z 08003KT 10SM FEW032 BKN052 13/09 A3013 RMK AO2 SLP208 T01280089 55004
PAPG 231356Z 00000KT 10SM FEW032 BKN052 12/09 A3013 RMK AO2 SLP207 T01220089
PAPG 231330Z AUTO 00000KT 10SM SCT025 BKN045 11/09 A3013 RMK AO2
PAPG 231256Z AUTO 00000KT 10SM OVC025 11/09 A3014 RMK AO2 SLP208 T01110094
PAPG 231217Z AUTO 00000KT 10SM BKN027 BKN043 11/09 A3014 RMK AO2
PAPG 231156Z AUTO 00000KT 10SM BKN045 11/09 A3015 RMK AO2 SLP211 T01110089 10139 20111 58001
PAPG 231130Z AUTO 00000KT 10SM SCT024 OVC041 12/09 A3015 RMK AO2
PAPG 231056Z AUTO 00000KT 10SM OVC024 12/09 A3015 RMK AO2 SLP212 T01220089
PAPG 231042Z AUTO 00000KT 10SM BKN024 BKN037 12/09 A3015 RMK AO2
PAPG 231024Z AUTO 00000KT 10SM SCT026 BKN037 12/09 A3015 RMK AO2
PAPG 230956Z AUTO 25004KT 10SM BKN028 OVC036 12/09 A3015 RMK AO2 SLP213 T01220094
PAPG 230951Z AUTO 00000KT 10SM BKN028 OVC034 12/09 A3015 RMK AO2
PAPG 230856Z AUTO 00000KT 5SM BR SCT040 BKN049 BKN065 12/09 A3015 RMK AO2 SLP212 T01170094 401720111 50001
PAPG 230756Z AUTO 00000KT 7SM BKN037 OVC045 13/11 A3015 RMK AO2 SLP213 T01280106
PAPG 230656Z AUTO 00000KT 10SM SCT043 OVC050 13/10 A3015 RMK AO2 SLP212 T01330100
PAPG 230556Z 00000KT 10SM BKN035 BKN070 13/10 A3014 RMK AO2 RAB07E24 SLP211 P0000 60000 T01330100 10167 20133 55000
PAPG 230456Z 00000KT 10SM FEW040 BKN060 14/11 A3013 RMK AO2 SLP207 T01440106
PAPG 230356Z 00000KT 10SM FEW040 BKN060 14/11 A3014 RMK AO2 SLP209 T01390106
PAPG 230256Z 07003KT 10SM FEW040 BKN060 14/11 A3014 RMK AO2 SLP211 T01390106 56000
PAPG 230156Z 08003KT 10SM FEW042 BKN065 15/11 A3015 RMK AO2 SLP211 T01500106
PAPG 230056Z 06004KT 10SM BKN065 16/10 A3014 RMK AO2 SLP210 T01560100
PAPG 222356Z 06006KT 10SM CLR 17/11 A3015 RMK AO2 SLP211 T01670106 10172 20139 56001
PAPG 222256Z 04006KT 10SM FEW055 16/11 A3015 RMK AO2 SLP212 T01610106
PAPG 222156Z 09006KT 10SM CLR 17/11 A3015 RMK AO2 SLP211 T01670106
PAPG 222056Z 07006KT 10SM OVC045 16/11 A3015 RMK AO2 SLP212 T01610111 50002
PAPG 221956Z 08004KT 10SM OVC041 15/11 A3015 RMK AO2 SLP213 T01500106
PAPG 221856Z 09007KT 10SM OVC039 14/11 A3015 RMK AO2 SLP213 T01440106
PAPG 221756Z 08004KT 10SM OVC035 14/10 A3015 RMK AO2 SLP211 T01440100 10144 20122 51006
PAPG 221714Z 09005KT 10SM SCT023 OVC033 14/10 A3014 RMK AO2
PAPG 221656Z 09004KT 10SM OVC023 14/09 A3014 RMK AO2 SLP210 T01390094
PAPG 221556Z 00000KT 10SM OVC025 14/09 A3013 RMK AO2 SLP206 T01390094
PAPG 221456Z 27006KT 10SM BKN025 14/09 A3013 RMK AO2 SLP204 T01390094 53006
PAPG 221356Z 25004KT 10SM OVC025 13/09 A3012 RMK AO2 SLP202 T01330094